createdAt,value
2022-12-25T00:02:09.558Z,91.94
2022-12-25T00:04:35.962Z,92.20
2022-12-25T00:07:02.632Z,91.79
2022-12-25T00:09:29.227Z,91.18
2022-12-25T00:11:55.571Z,90.98
2022-12-25T00:14:21.968Z,91.37
2022-12-25T00:16:48.397Z,91.13
2022-12-25T00:19:14.939Z,90.81
2022-12-25T00:21:41.297Z,91.66
2022-12-25T00:24:07.705Z,91.48
2022-12-25T00:26:34.061Z,91.53
2022-12-25T00:29:00.433Z,91.87
2022-12-25T00:31:27.788Z,91.91
2022-12-25T00:33:54.370Z,91.85
2022-12-25T00:36:22.233Z,91.50
2022-12-25T00:38:48.829Z,91.85
2022-12-25T00:41:41.120Z,91.03
2022-12-25T00:44:10.025Z,91.21
2022-12-25T00:46:37.043Z,90.41
2022-12-25T00:49:03.711Z,90.23
2022-12-25T00:51:30.074Z,90.48
2022-12-25T00:53:56.972Z,90.63
2022-12-25T00:56:23.342Z,90.52
2022-12-25T00:58:49.839Z,90.29
2022-12-25T01:01:16.381Z,89.96
2022-12-25T01:03:43.212Z,90.29
2022-12-25T01:06:12.753Z,90.65
2022-12-25T01:09:03.636Z,91.23
2022-12-25T01:11:31.307Z,90.69
2022-12-25T01:13:57.839Z,90.43
2022-12-25T01:16:24.648Z,90.08
2022-12-25T01:18:51.196Z,89.61
2022-12-25T01:21:21.026Z,89.62
2022-12-25T01:23:50.097Z,89.63
2022-12-25T01:26:18.603Z,89.49
2022-12-25T01:28:45.746Z,89.47
2022-12-25T01:31:14.772Z,89.45
2022-12-25T01:33:42.581Z,89.54
2022-12-25T01:36:17.755Z,90.05
2022-12-25T01:38:45.099Z,90.19
2022-12-25T01:41:13.876Z,90.11
2022-12-25T01:44:00.623Z,89.89
2022-12-25T01:46:27.794Z,90.24
2022-12-25T01:48:58.850Z,90.21
2022-12-25T01:51:32.800Z,90.28
2022-12-25T01:54:03.731Z,90.60
2022-12-25T01:56:31.529Z,90.61
2022-12-25T01:58:59.494Z,90.59
2022-12-25T02:01:26.044Z,90.39
2022-12-25T02:04:01.201Z,90.35
2022-12-25T02:06:30.584Z,89.90
2022-12-25T02:08:58.246Z,90.55
2022-12-25T02:11:43.331Z,89.89
2022-12-25T02:14:09.926Z,89.96
2022-12-25T02:16:58.254Z,90.25
2022-12-25T02:19:57.377Z,90.43
2022-12-25T02:22:56.314Z,90.28
2022-12-25T02:25:41.286Z,90.89
2022-12-25T02:28:23.603Z,90.72
2022-12-25T02:31:18.707Z,90.76
2022-12-25T02:34:20.623Z,90.79
2022-12-25T02:36:54.948Z,90.24
2022-12-25T02:40:00.061Z,90.10
2022-12-25T02:42:53.420Z,90.10
2022-12-25T02:45:47.516Z,90.11
2022-12-25T02:48:34.409Z,89.90
2022-12-25T02:51:23.831Z,89.88
2022-12-25T02:54:12.228Z,89.41
2022-12-25T02:57:00.307Z,89.43
2022-12-25T02:59:47.826Z,89.34
2022-12-25T03:02:35.370Z,88.80
2022-12-25T03:05:26.160Z,89.07
2022-12-25T03:07:52.969Z,89.00
2022-12-25T03:10:39.822Z,88.80
2022-12-25T03:13:14.731Z,88.47
2022-12-25T03:16:00.253Z,88.59
2022-12-25T03:18:29.902Z,88.97
2022-12-25T03:21:15.275Z,88.77
2022-12-25T03:24:04.168Z,88.29
2022-12-25T03:26:48.992Z,88.15
2022-12-25T03:29:35.443Z,87.91
2022-12-25T03:32:48.059Z,88.12
2022-12-25T03:35:24.207Z,88.39
2022-12-25T03:38:30.296Z,88.66
2022-12-25T03:41:31.312Z,87.82
2022-12-25T03:44:39.598Z,86.91
2022-12-25T03:47:37.564Z,87.53
2022-12-25T03:50:49.225Z,87.77
2022-12-25T03:53:42.774Z,88.16
2022-12-25T03:56:28.535Z,88.91
2022-12-25T03:59:22.937Z,88.51
2022-12-25T04:02:09.657Z,87.35
2022-12-25T04:04:55.092Z,88.09
2022-12-25T04:07:39.811Z,88.04
2022-12-25T04:10:25.754Z,88.12
2022-12-25T04:13:11.111Z,87.74
2022-12-25T04:15:56.023Z,88.32
2022-12-25T04:18:41.180Z,87.99
2022-12-25T04:21:25.881Z,87.26
2022-12-25T04:24:15.235Z,87.47
2022-12-25T04:27:00.157Z,86.43
2022-12-25T04:29:47.351Z,86.74
2022-12-25T04:32:32.316Z,86.38
2022-12-25T04:35:17.173Z,85.86
2022-12-25T04:37:43.729Z,85.90
2022-12-25T04:40:10.356Z,87.04
2022-12-25T04:42:36.915Z,87.03
2022-12-25T04:45:03.688Z,87.77
2022-12-25T04:47:30.291Z,87.91
2022-12-25T04:49:56.653Z,87.27
2022-12-25T04:52:23.153Z,87.45
2022-12-25T04:54:49.495Z,86.91
2022-12-25T04:57:17.032Z,87.02
2022-12-25T04:59:43.379Z,86.83
2022-12-25T05:02:09.900Z,86.62
2022-12-25T05:04:36.319Z,86.90
2022-12-25T05:07:02.834Z,86.66
2022-12-25T05:09:29.262Z,87.74
2022-12-25T05:11:55.855Z,87.52
2022-12-25T05:14:22.229Z,87.53
2022-12-25T05:16:48.759Z,88.10
2022-12-25T05:19:15.268Z,87.76
2022-12-25T05:21:41.638Z,87.51
2022-12-25T05:24:08.221Z,87.50
2022-12-25T05:26:34.740Z,87.59
2022-12-25T05:29:02.168Z,87.56
2022-12-25T05:31:28.560Z,88.02
2022-12-25T05:33:55.066Z,88.35
2022-12-25T05:36:21.470Z,88.63
2022-12-25T05:38:48.072Z,88.70
2022-12-25T05:41:14.455Z,88.10
2022-12-25T05:43:40.890Z,88.02
2022-12-25T05:46:09.076Z,88.43
2022-12-25T05:48:37.424Z,88.21
2022-12-25T05:51:09.848Z,87.63
2022-12-25T05:53:36.903Z,87.68
2022-12-25T05:56:06.102Z,88.00
2022-12-25T05:58:34.245Z,88.37
2022-12-25T06:01:01.341Z,88.02
2022-12-25T06:03:30.156Z,88.34
2022-12-25T06:05:56.603Z,89.12
2022-12-25T06:08:23.109Z,88.20
2022-12-25T06:10:49.507Z,88.84
2022-12-25T06:13:16.007Z,88.30
2022-12-25T06:15:42.700Z,88.35
2022-12-25T06:18:09.262Z,88.46
2022-12-25T06:20:35.930Z,87.66
2022-12-25T06:23:02.403Z,87.71
2022-12-25T06:25:28.938Z,87.58
2022-12-25T06:27:55.332Z,88.33
2022-12-25T06:30:21.702Z,88.68
2022-12-25T06:32:48.125Z,88.23
2022-12-25T06:35:14.510Z,88.40
2022-12-25T06:37:41.259Z,88.81
2022-12-25T06:40:08.297Z,89.48
2022-12-25T06:42:34.800Z,89.86
2022-12-25T06:45:01.151Z,89.54
2022-12-25T06:47:27.754Z,88.69
2022-12-25T06:49:54.143Z,88.79
2022-12-25T06:52:20.568Z,89.69
2022-12-25T06:54:47.427Z,90.34
2022-12-25T06:57:13.817Z,90.03
2022-12-25T06:59:40.332Z,89.63
2022-12-25T07:02:16.684Z,89.81
2022-12-25T07:04:43.338Z,89.43
2022-12-25T07:07:10.063Z,89.28
2022-12-25T07:09:38.631Z,88.96
2022-12-25T07:12:08.160Z,89.07
2022-12-25T07:14:34.718Z,89.71
2022-12-25T07:17:01.201Z,89.85
2022-12-25T07:19:27.780Z,89.99
2022-12-25T07:21:54.154Z,89.86
2022-12-25T07:24:21.475Z,89.82
2022-12-25T07:26:48.909Z,89.97
2022-12-25T07:29:15.397Z,89.42
2022-12-25T07:31:41.928Z,89.63
2022-12-25T07:34:08.735Z,88.32
2022-12-25T07:36:35.175Z,89.95
2022-12-25T07:39:01.575Z,90.15
2022-12-25T07:41:28.024Z,89.87
2022-12-25T07:44:12.726Z,89.47
2022-12-25T07:46:39.093Z,89.53
2022-12-25T07:49:05.507Z,89.76
2022-12-25T07:51:31.975Z,90.31
2022-12-25T07:53:58.430Z,90.50
2022-12-25T07:56:24.839Z,90.09
2022-12-25T07:58:51.212Z,89.96
2022-12-25T08:01:21.229Z,90.18
2022-12-25T08:03:55.907Z,89.74
2022-12-25T08:06:26.689Z,89.32
2022-12-25T08:08:53.126Z,89.43
2022-12-25T08:11:19.633Z,89.38
2022-12-25T08:13:46.009Z,90.27
2022-12-25T08:16:12.651Z,89.71
2022-12-25T08:18:39.909Z,89.50
2022-12-25T08:21:09.206Z,90.06
2022-12-25T08:23:37.684Z,90.23
2022-12-25T08:26:06.042Z,90.47
2022-12-25T08:28:34.246Z,90.00
2022-12-25T08:31:08.382Z,90.16
2022-12-25T08:33:35.767Z,89.94
2022-12-25T08:36:07.466Z,89.19
2022-12-25T08:38:33.858Z,89.75
2022-12-25T08:41:00.407Z,90.04
2022-12-25T08:43:27.088Z,89.22
2022-12-25T08:45:53.531Z,88.96
2022-12-25T08:48:19.945Z,90.15
2022-12-25T08:50:47.742Z,90.07
2022-12-25T08:53:14.486Z,90.05
2022-12-25T08:55:41.167Z,90.22
2022-12-25T08:58:07.709Z,90.63
2022-12-25T09:00:34.206Z,90.11
2022-12-25T09:03:00.885Z,90.58
2022-12-25T09:05:27.547Z,90.01
2022-12-25T09:07:53.911Z,89.98
2022-12-25T09:10:20.392Z,89.56
2022-12-25T09:12:46.802Z,90.31
2022-12-25T09:15:13.277Z,90.03
2022-12-25T09:17:39.681Z,89.59
2022-12-25T09:20:07.082Z,90.24
2022-12-25T09:22:34.109Z,90.45
2022-12-25T09:25:00.512Z,91.58
2022-12-25T09:27:26.899Z,90.55
2022-12-25T09:29:53.367Z,90.42
2022-12-25T09:32:19.743Z,89.94
2022-12-25T09:34:46.149Z,90.68
2022-12-25T09:37:12.522Z,90.25
2022-12-25T09:39:45.903Z,90.61
2022-12-25T09:42:19.004Z,90.76
2022-12-25T09:44:57.815Z,91.10
2022-12-25T09:47:29.346Z,90.68
2022-12-25T09:50:06.668Z,91.83
2022-12-25T09:52:46.497Z,91.50
2022-12-25T09:55:20.547Z,91.17
2022-12-25T09:57:52.621Z,91.56
2022-12-25T10:00:22.378Z,90.90
2022-12-25T10:02:57.645Z,91.04
2022-12-25T10:05:58.838Z,91.51
2022-12-25T10:08:37.497Z,91.58
2022-12-25T10:11:26.602Z,90.95
2022-12-25T10:14:19.320Z,90.90
2022-12-25T10:17:21.739Z,92.10
2022-12-25T10:20:00.444Z,91.30
2022-12-25T10:22:34.817Z,91.85
2022-12-25T10:25:03.138Z,91.59
2022-12-25T10:27:38.987Z,92.44
2022-12-25T10:30:15.353Z,92.71
2022-12-25T10:32:42.868Z,91.49
2022-12-25T10:35:15.024Z,91.42
2022-12-25T10:37:43.093Z,91.96
2022-12-25T10:40:36.711Z,92.50
2022-12-25T10:43:17.663Z,91.49
2022-12-25T10:45:48.998Z,92.41
2022-12-25T10:48:25.108Z,92.40
2022-12-25T10:50:52.181Z,92.36
2022-12-25T10:53:25.109Z,92.27
2022-12-25T10:56:02.703Z,92.81
2022-12-25T10:58:30.354Z,91.69
2022-12-25T11:01:08.298Z,92.04
2022-12-25T11:03:39.205Z,91.77
2022-12-25T11:06:07.411Z,92.04
2022-12-25T11:08:34.948Z,92.99
2022-12-25T11:11:06.322Z,92.18
2022-12-25T11:13:36.259Z,92.14
2022-12-25T11:16:12.872Z,91.83
2022-12-25T11:18:53.569Z,92.38
2022-12-25T11:21:34.327Z,92.61
2022-12-25T11:24:06.787Z,92.95
2022-12-25T11:26:50.359Z,92.60
2022-12-25T11:29:37.698Z,92.88
2022-12-25T11:32:05.676Z,92.19
2022-12-25T11:34:45.069Z,91.66
2022-12-25T11:37:17.514Z,92.66
2022-12-25T11:39:44.149Z,93.18
2022-12-25T11:42:28.960Z,94.35
2022-12-25T11:45:17.312Z,95.05
2022-12-25T11:47:58.210Z,94.77
2022-12-25T11:50:46.747Z,94.65
2022-12-25T11:53:20.914Z,94.28
2022-12-25T11:55:54.693Z,94.80
2022-12-25T11:58:39.637Z,94.26
2022-12-25T12:01:15.512Z,93.30
2022-12-25T12:03:42.818Z,93.99
2022-12-25T12:06:38.408Z,94.53
2022-12-25T12:09:32.429Z,93.54
2022-12-25T12:12:23.872Z,93.99
2022-12-25T12:15:08.203Z,94.39
2022-12-25T12:17:34.912Z,93.83
2022-12-25T12:20:32.232Z,94.35
2022-12-25T12:23:00.975Z,94.93
2022-12-25T12:25:28.924Z,96.11
2022-12-25T12:28:05.173Z,95.72
2022-12-25T12:30:35.841Z,95.56
2022-12-25T12:33:05.979Z,95.40
2022-12-25T12:35:35.991Z,95.22
2022-12-25T12:38:05.445Z,95.54
2022-12-25T12:40:42.691Z,95.81
2022-12-25T12:43:31.106Z,94.64
2022-12-25T12:46:16.062Z,94.93
2022-12-25T12:48:45.799Z,95.36
2022-12-25T12:51:26.156Z,94.90
2022-12-25T12:54:20.135Z,94.94
2022-12-25T12:57:01.783Z,94.95
2022-12-25T12:59:38.929Z,94.87
2022-12-25T13:02:39.408Z,94.53
2022-12-25T13:05:18.031Z,95.60
2022-12-25T13:08:07.639Z,95.04
2022-12-25T13:10:41.144Z,95.45
2022-12-25T13:13:37.027Z,95.59
2022-12-25T13:16:03.796Z,95.80
2022-12-25T13:18:31.734Z,95.60
2022-12-25T13:21:05.013Z,95.33
2022-12-25T13:23:36.811Z,94.41
2022-12-25T13:26:06.093Z,94.53
2022-12-25T13:28:35.571Z,94.96
2022-12-25T13:31:23.137Z,94.94
2022-12-25T13:34:00.647Z,94.15
2022-12-25T13:36:29.978Z,94.85
2022-12-25T13:38:57.780Z,94.51
2022-12-25T13:41:46.199Z,94.17
2022-12-25T13:44:19.436Z,94.63
2022-12-25T13:46:47.088Z,94.96
2022-12-25T13:49:16.954Z,94.77
2022-12-25T13:51:43.841Z,94.29
2022-12-25T13:54:12.929Z,93.96
2022-12-25T13:56:51.531Z,94.47
2022-12-25T13:59:21.635Z,94.73
2022-12-25T14:01:49.899Z,94.50
2022-12-25T14:04:19.924Z,93.86
2022-12-25T14:06:47.046Z,94.58
2022-12-25T14:09:14.409Z,94.27
2022-12-25T14:11:45.675Z,94.63
2022-12-25T14:14:18.837Z,95.41
2022-12-25T14:16:51.220Z,94.27
2022-12-25T14:19:30.590Z,94.36
2022-12-25T14:22:22.455Z,94.12
2022-12-25T14:24:49.366Z,94.88
2022-12-25T14:27:22.942Z,94.90
2022-12-25T14:29:52.137Z,94.30
2022-12-25T14:32:27.896Z,94.41
2022-12-25T14:34:59.363Z,95.08
2022-12-25T14:37:29.881Z,94.38
2022-12-25T14:40:05.050Z,94.81
2022-12-25T14:42:35.092Z,95.20
2022-12-25T14:45:06.289Z,94.57
2022-12-25T14:47:39.601Z,93.91
2022-12-25T14:50:26.030Z,93.72
2022-12-25T14:52:53.737Z,94.40
2022-12-25T14:55:27.206Z,94.57
2022-12-25T14:58:05.754Z,94.30
2022-12-25T15:00:35.468Z,94.76
2022-12-25T15:03:08.736Z,94.43
2022-12-25T15:05:39.691Z,95.16
2022-12-25T15:08:06.383Z,95.47
2022-12-25T15:13:20.538Z,94.13
2022-12-25T15:15:51.677Z,95.30
2022-12-25T15:18:20.606Z,94.63
2022-12-25T15:20:47.000Z,94.80
2022-12-25T15:23:20.140Z,94.89
2022-12-25T15:25:47.686Z,94.45
2022-12-25T15:28:14.091Z,95.23
2022-12-25T15:30:40.640Z,94.72
2022-12-25T15:33:09.035Z,94.84
2022-12-25T15:35:38.354Z,94.59
2022-12-25T15:38:05.367Z,94.64
2022-12-25T15:40:31.751Z,94.28
2022-12-25T15:42:58.091Z,94.04
2022-12-25T15:45:27.415Z,94.06
2022-12-25T15:47:54.176Z,94.29
2022-12-25T15:50:20.992Z,94.59
2022-12-25T15:52:47.956Z,94.08
2022-12-25T15:55:15.277Z,95.00
2022-12-25T15:57:43.775Z,94.71
2022-12-25T16:00:19.682Z,95.12
2022-12-25T16:02:46.364Z,94.56
2022-12-25T16:05:12.992Z,94.52
2022-12-25T16:07:39.636Z,95.00
2022-12-25T16:10:11.315Z,94.87
2022-12-25T16:12:39.005Z,94.25
2022-12-25T16:15:06.023Z,94.30
2022-12-25T16:17:32.409Z,95.53
2022-12-25T16:19:58.874Z,94.84
2022-12-25T16:22:28.516Z,95.36
2022-12-25T16:24:55.317Z,95.37
2022-12-25T16:27:22.149Z,95.80
2022-12-25T16:29:48.725Z,94.98
2022-12-25T16:32:15.682Z,95.72
2022-12-25T16:34:42.181Z,95.51
2022-12-25T16:37:08.634Z,95.86
2022-12-25T16:39:35.084Z,95.44
2022-12-25T16:42:01.484Z,96.16
2022-12-25T16:44:28.014Z,95.88
2022-12-25T16:46:54.583Z,96.15
2022-12-25T16:49:21.072Z,96.71
2022-12-25T16:51:47.544Z,96.37
2022-12-25T16:54:13.960Z,97.43
2022-12-25T16:56:41.394Z,96.50
2022-12-25T16:59:07.741Z,96.84
2022-12-25T17:01:34.452Z,97.12
2022-12-25T17:04:03.928Z,96.76
2022-12-25T17:06:30.578Z,96.76
2022-12-25T17:08:58.973Z,96.99
2022-12-25T17:11:29.566Z,97.45
2022-12-25T17:14:02.024Z,97.77
2022-12-25T17:16:31.084Z,98.56
2022-12-25T17:19:01.233Z,99.03
2022-12-25T17:21:29.021Z,98.98
2022-12-25T17:24:01.657Z,99.34
2022-12-25T17:26:31.737Z,98.71
2022-12-25T17:28:58.311Z,99.09
2022-12-25T17:31:24.840Z,98.80
2022-12-25T17:33:51.517Z,100.00
2022-12-25T17:36:20.371Z,99.81
2022-12-25T17:38:47.713Z,100.00
2022-12-25T17:41:16.285Z,100.00
2022-12-25T17:43:45.389Z,100.00
2022-12-25T17:46:14.978Z,100.00
2022-12-25T17:48:41.596Z,100.00
2022-12-25T17:51:12.098Z,100.00
2022-12-25T17:53:41.089Z,100.00
2022-12-25T17:56:09.665Z,100.00
2022-12-25T17:58:37.056Z,100.00
2022-12-25T18:01:15.205Z,100.00
2022-12-25T18:03:47.540Z,100.00
2022-12-25T18:06:17.467Z,100.00
2022-12-25T18:08:45.932Z,100.00
2022-12-25T18:11:15.259Z,100.00
2022-12-25T18:13:44.697Z,100.00
2022-12-25T18:16:12.862Z,100.00
2022-12-25T18:18:40.405Z,100.00
2022-12-25T18:21:08.429Z,100.00
2022-12-25T18:23:36.109Z,100.00
2022-12-25T18:26:04.745Z,100.00
2022-12-25T18:28:32.281Z,100.00
2022-12-25T18:30:59.269Z,100.00
2022-12-25T18:33:27.246Z,100.00
2022-12-25T18:35:59.202Z,100.00
2022-12-25T18:38:27.640Z,100.00
2022-12-25T18:40:54.436Z,100.00
2022-12-25T18:43:21.088Z,100.00
2022-12-25T18:46:07.638Z,100.00
2022-12-25T18:48:35.775Z,100.00
2022-12-25T18:51:05.352Z,100.00
2022-12-25T18:53:32.861Z,100.00
2022-12-25T18:56:05.699Z,100.00
2022-12-25T18:58:32.386Z,100.00
2022-12-25T19:00:59.369Z,100.00
2022-12-25T19:03:26.201Z,100.00
2022-12-25T19:05:52.966Z,100.00
2022-12-25T19:08:19.568Z,100.00
2022-12-25T19:10:46.402Z,100.00
2022-12-25T19:13:13.278Z,100.00
2022-12-25T19:15:43.643Z,100.00
2022-12-25T19:18:10.611Z,100.00
2022-12-25T19:20:40.915Z,100.00
2022-12-25T19:23:08.290Z,100.00
2022-12-25T19:25:34.749Z,100.00
2022-12-25T19:28:02.305Z,100.00
2022-12-25T19:30:28.699Z,100.00
2022-12-25T19:32:55.150Z,100.00
2022-12-25T19:35:21.636Z,100.00
2022-12-25T19:37:48.240Z,100.00
2022-12-25T19:40:14.619Z,100.00
2022-12-25T19:42:41.314Z,100.00
2022-12-25T19:45:08.164Z,100.00
2022-12-25T19:47:34.911Z,100.00
2022-12-25T19:50:03.310Z,100.00
2022-12-25T19:52:30.188Z,100.00
2022-12-25T19:54:56.640Z,100.00
2022-12-25T19:57:23.215Z,100.00
2022-12-25T19:59:49.967Z,100.00
2022-12-25T20:02:17.056Z,100.00
2022-12-25T20:04:43.773Z,100.00
2022-12-25T20:07:10.340Z,100.00
2022-12-25T20:09:36.965Z,100.00
2022-12-25T20:12:03.563Z,100.00
2022-12-25T20:14:29.924Z,99.71
2022-12-25T20:16:57.614Z,100.00
2022-12-25T20:19:24.093Z,100.00
2022-12-25T20:21:50.556Z,100.00
2022-12-25T20:24:17.019Z,99.98
2022-12-25T20:26:47.528Z,99.71
2022-12-25T20:29:14.734Z,99.55
2022-12-25T20:31:41.188Z,99.79
2022-12-25T20:34:10.169Z,99.92
2022-12-25T20:36:38.151Z,100.00
2022-12-25T20:39:09.154Z,100.00
2022-12-25T20:41:36.117Z,100.00
2022-12-25T20:44:04.145Z,100.00
2022-12-25T20:46:30.673Z,100.00
2022-12-25T20:48:57.143Z,100.00
2022-12-25T20:51:25.709Z,100.00
2022-12-25T20:53:52.371Z,100.00
2022-12-25T20:56:21.965Z,100.00
2022-12-25T20:58:52.941Z,100.00
2022-12-25T21:01:19.657Z,100.00
2022-12-25T21:03:46.136Z,100.00
2022-12-25T21:06:12.822Z,100.00
2022-12-25T21:08:40.805Z,100.00
2022-12-25T21:11:08.449Z,100.00
2022-12-25T21:13:37.931Z,100.00
2022-12-25T21:16:06.454Z,100.00
2022-12-25T21:18:32.863Z,100.00
2022-12-25T21:21:01.016Z,100.00
2022-12-25T21:23:28.847Z,100.00
2022-12-25T21:25:55.255Z,100.00
2022-12-25T21:28:22.698Z,100.00
2022-12-25T21:30:49.337Z,100.00
2022-12-25T21:33:34.808Z,100.00
2022-12-25T21:36:11.582Z,100.00
2022-12-25T21:38:39.182Z,100.00
2022-12-25T21:41:08.137Z,100.00
2022-12-25T21:43:35.900Z,100.00
2022-12-25T21:46:08.105Z,100.00
2022-12-25T21:48:36.366Z,100.00
2022-12-25T21:51:32.078Z,100.00
2022-12-25T21:53:59.012Z,100.00
2022-12-25T21:56:28.174Z,99.91
2022-12-25T21:58:54.760Z,99.40
2022-12-25T22:01:21.290Z,99.30
2022-12-25T22:03:47.913Z,98.68
2022-12-25T22:06:32.863Z,98.22
2022-12-25T22:09:00.100Z,98.79
2022-12-25T22:11:45.750Z,98.35
2022-12-25T22:14:51.497Z,98.98
2022-12-25T22:17:44.521Z,98.31
2022-12-25T22:20:21.221Z,97.88
2022-12-25T22:22:47.656Z,98.05
2022-12-25T22:25:15.485Z,97.80
2022-12-25T22:27:43.470Z,96.90
2022-12-25T22:30:13.342Z,97.16
2022-12-25T22:32:40.177Z,97.07
2022-12-25T22:35:07.028Z,96.76
2022-12-25T22:37:33.551Z,96.03
2022-12-25T22:40:02.113Z,95.69
2022-12-25T22:42:28.768Z,96.17
2022-12-25T22:44:55.216Z,96.63
2022-12-25T22:47:23.878Z,96.22
2022-12-25T22:49:50.380Z,95.99
2022-12-25T22:52:16.973Z,95.83
2022-12-25T22:54:43.368Z,96.16
2022-12-25T22:57:09.854Z,96.55
2022-12-25T22:59:36.362Z,96.35
2022-12-25T23:02:02.825Z,96.12
2022-12-25T23:04:29.516Z,95.58
2022-12-25T23:06:56.569Z,95.93
2022-12-25T23:09:27.533Z,96.31
2022-12-25T23:11:55.739Z,95.28
2022-12-25T23:14:40.610Z,95.69
2022-12-25T23:17:31.170Z,95.69
2022-12-25T23:20:17.760Z,95.45
2022-12-25T23:23:03.462Z,95.10
2022-12-25T23:25:48.335Z,95.10
2022-12-25T23:28:34.915Z,94.86
2022-12-25T23:31:01.431Z,94.70
2022-12-25T23:33:27.878Z,95.04
2022-12-25T23:35:54.249Z,95.89
2022-12-25T23:38:20.731Z,95.58
2022-12-25T23:40:47.076Z,96.65
2022-12-25T23:43:13.589Z,96.31
2022-12-25T23:45:40.228Z,96.18
2022-12-25T23:48:06.644Z,96.72
2022-12-25T23:50:33.751Z,96.07
2022-12-25T23:53:00.672Z,96.18
2022-12-25T23:55:29.984Z,96.43
2022-12-25T23:57:56.340Z,96.63
